Airfield :
LOGIN :

Register | Disclaimer

   EN    FR    IT 

 










Legend :    VFR   Marginal VFR   IFR   Intensive IFR   Very Intensive IFR
Visi :
Ceiling :
>= 8 km
>= 3000ft
5 to 8 km
1000 to 3000 ft
1500m to 5 km
500 to 1000 ft
800 to 1500m
200 to 500 ft
< 800m
< 200 ft
Symbols :   Thunderstorms  Fog  Heavy snow  Heavy precipitations  Wind > 20 kt
SIGMETs :     Misc.  Thunderstorms  Icing  Turbulence  Mountain Waves  Volcanic Ashes






- Airport Elevation : 472 ft
- IATA code : GME


UMGG - Gomel

CURRENT METAR :
  • 281700Z 15004MPS 2200 BR BKN005 OVC090 00/M00 Q1008 R28/190055 TEMPO OVC004 RMK QBB160

EXPIRED METARs :
  • 281630Z 14004MPS 2500 BR SCT006 OVC090 00/M00 Q1008 R28/190055 TEMPO OVC004 RMK QBB180
  • 281600Z 14004MPS 2500 BR SCT045 OVC084 00/M00 Q1009 R28/190055 NOSIG
  • 281530Z 15004MPS 2900 BR SCT040 OVC084 00/M00 Q1009 R28/190055 NOSIG
  • 281500Z 15004MPS 2900 BR SCT040 OVC084 00/M00 Q1009 R28/190055 NOSIG
  • 281430Z 14004MPS 2900 BR SCT006 OVC084 01/00 Q1009 R28/190055 NOSIG RMK QBB190

TAF TAF UMGG
Valid from the 28 at 18:00 until the 29 at 18:00 UTC


281654Z 2818/2918 15004MPS 2000 BR OVC004
TEMPO 2818/2908 0300 -FZDZ FZFG OVC002
TEMPO 2910/2915 13008G13MPS 1200 SHRASN BKN013CB
TEMPO 2915/2918 16006MPS 1200 BKN003



MET'MAP, your aeronautical weather chart ! - Copyright ORBIFLY December 2007 - Disclaimer

ORBIFLY MET'MAP TEAM :

Programming & Development : Alexandra Zaïnal
Concept & original design : Baudouin d'Aumeries
Assistance for programming : Marc-Olivier Méhu
Technical & hardware support : Manuel Goepfert

Contact : metmap@orbifly.com




SOURCES & CREDITS :

   NOAA